sensor_id;sensor_type;location;lat;lon;timestamp;P1;durP1;ratioP1;P2;durP2;ratioP2
79229;SDS011;68663;49.122;17.544;2024-01-07T00:01:38;7.03;;;4.15;;
79229;SDS011;68663;49.122;17.544;2024-01-07T00:04:03;5.32;;;4.00;;
79229;SDS011;68663;49.122;17.544;2024-01-07T00:06:28;5.13;;;3.95;;
79229;SDS011;68663;49.122;17.544;2024-01-07T00:08:54;4.85;;;4.03;;
79229;SDS011;68663;49.122;17.544;2024-01-07T00:11:19;5.63;;;3.90;;
79229;SDS011;68663;49.122;17.544;2024-01-07T00:13:45;4.13;;;3.73;;
79229;SDS011;68663;49.122;17.544;2024-01-07T00:16:11;4.97;;;4.13;;
79229;SDS011;68663;49.122;17.544;2024-01-07T00:18:36;4.57;;;3.40;;
79229;SDS011;68663;49.122;17.544;2024-01-07T00:21:02;5.60;;;4.15;;
79229;SDS011;68663;49.122;17.544;2024-01-07T00:23:27;6.15;;;4.13;;
79229;SDS011;68663;49.122;17.544;2024-01-07T00:25:52;5.77;;;3.90;;
79229;SDS011;68663;49.122;17.544;2024-01-07T00:28:18;5.43;;;4.28;;
79229;SDS011;68663;49.122;17.544;2024-01-07T00:30:44;4.55;;;3.67;;
79229;SDS011;68663;49.122;17.544;2024-01-07T00:33:09;5.53;;;3.87;;
79229;SDS011;68663;49.122;17.544;2024-01-07T00:35:34;4.73;;;3.53;;
79229;SDS011;68663;49.122;17.544;2024-01-07T00:38:00;4.57;;;3.65;;
79229;SDS011;68663;49.122;17.544;2024-01-07T00:40:25;4.70;;;4.20;;
79229;SDS011;68663;49.122;17.544;2024-01-07T00:42:51;5.07;;;3.97;;
79229;SDS011;68663;49.122;17.544;2024-01-07T00:45:17;5.68;;;4.53;;
79229;SDS011;68663;49.122;17.544;2024-01-07T00:47:43;4.38;;;3.28;;
79229;SDS011;68663;49.122;17.544;2024-01-07T00:50:09;4.88;;;3.67;;
79229;SDS011;68663;49.122;17.544;2024-01-07T00:52:34;4.20;;;3.53;;
79229;SDS011;68663;49.122;17.544;2024-01-07T00:55:02;4.60;;;3.50;;
79229;SDS011;68663;49.122;17.544;2024-01-07T00:57:28;5.10;;;3.67;;
79229;SDS011;68663;49.122;17.544;2024-01-07T00:59:54;4.72;;;3.35;;
79229;SDS011;68663;49.122;17.544;2024-01-07T01:02:20;5.25;;;3.85;;
79229;SDS011;68663;49.122;17.544;2024-01-07T01:04:45;4.43;;;3.33;;
79229;SDS011;68663;49.122;17.544;2024-01-07T01:07:11;3.70;;;3.03;;
79229;SDS011;68663;49.122;17.544;2024-01-07T01:09:36;5.73;;;4.03;;
79229;SDS011;68663;49.122;17.544;2024-01-07T01:12:02;5.72;;;3.58;;
79229;SDS011;68663;49.122;17.544;2024-01-07T01:14:27;4.95;;;3.75;;
79229;SDS011;68663;49.122;17.544;2024-01-07T01:16:53;4.70;;;3.73;;
79229;SDS011;68663;49.122;17.544;2024-01-07T01:19:18;5.13;;;3.97;;
79229;SDS011;68663;49.122;17.544;2024-01-07T01:21:44;4.47;;;3.60;;
79229;SDS011;68663;49.122;17.544;2024-01-07T01:24:09;4.60;;;4.00;;
79229;SDS011;68663;49.122;17.544;2024-01-07T01:26:34;4.47;;;3.45;;
79229;SDS011;68663;49.122;17.544;2024-01-07T01:29:00;4.75;;;3.50;;
79229;SDS011;68663;49.122;17.544;2024-01-07T01:31:25;4.47;;;3.37;;
79229;SDS011;68663;49.122;17.544;2024-01-07T01:33:51;4.67;;;3.43;;
79229;SDS011;68663;49.122;17.544;2024-01-07T01:36:16;4.57;;;3.40;;
79229;SDS011;68663;49.122;17.544;2024-01-07T01:38:41;4.97;;;3.45;;
79229;SDS011;68663;49.122;17.544;2024-01-07T01:41:07;4.35;;;3.67;;
79229;SDS011;68663;49.122;17.544;2024-01-07T01:43:32;4.03;;;3.30;;
79229;SDS011;68663;49.122;17.544;2024-01-07T01:45:58;3.90;;;3.33;;
79229;SDS011;68663;49.122;17.544;2024-01-07T01:48:23;4.80;;;3.15;;
79229;SDS011;68663;49.122;17.544;2024-01-07T01:50:49;4.88;;;3.53;;
79229;SDS011;68663;49.122;17.544;2024-01-07T01:53:15;4.80;;;3.72;;
79229;SDS011;68663;49.122;17.544;2024-01-07T01:55:41;3.85;;;3.30;;
79229;SDS011;68663;49.122;17.544;2024-01-07T01:58:12;4.13;;;3.17;;
79229;SDS011;68663;49.122;17.544;2024-01-07T02:00:38;3.95;;;3.10;;
79229;SDS011;68663;49.122;17.544;2024-01-07T02:03:04;5.38;;;3.70;;
79229;SDS011;68663;49.122;17.544;2024-01-07T02:05:29;4.40;;;3.50;;
79229;SDS011;68663;49.122;17.544;2024-01-07T02:07:55;4.32;;;3.13;;
79229;SDS011;68663;49.122;17.544;2024-01-07T02:10:21;3.67;;;2.95;;
79229;SDS011;68663;49.122;17.544;2024-01-07T02:12:47;5.05;;;3.92;;
79229;SDS011;68663;49.122;17.544;2024-01-07T02:15:13;3.55;;;3.08;;
79229;SDS011;68663;49.122;17.544;2024-01-07T02:17:39;3.67;;;2.95;;
79229;SDS011;68663;49.122;17.544;2024-01-07T02:20:04;4.18;;;3.28;;
79229;SDS011;68663;49.122;17.544;2024-01-07T02:22:30;4.47;;;3.50;;
79229;SDS011;68663;49.122;17.544;2024-01-07T02:24:55;3.67;;;3.00;;
79229;SDS011;68663;49.122;17.544;2024-01-07T02:27:21;4.28;;;3.67;;
79229;SDS011;68663;49.122;17.544;2024-01-07T02:29:46;4.03;;;3.33;;
79229;SDS011;68663;49.122;17.544;2024-01-07T02:32:12;3.25;;;2.80;;
79229;SDS011;68663;49.122;17.544;2024-01-07T02:34:37;4.30;;;3.10;;
79229;SDS011;68663;49.122;17.544;2024-01-07T02:37:02;3.77;;;3.10;;
79229;SDS011;68663;49.122;17.544;2024-01-07T02:39:28;4.50;;;3.15;;
79229;SDS011;68663;49.122;17.544;2024-01-07T02:41:53;4.07;;;3.15;;
79229;SDS011;68663;49.122;17.544;2024-01-07T02:44:19;4.10;;;3.50;;
79229;SDS011;68663;49.122;17.544;2024-01-07T02:46:44;5.43;;;3.63;;
79229;SDS011;68663;49.122;17.544;2024-01-07T02:49:11;5.05;;;3.55;;
79229;SDS011;68663;49.122;17.544;2024-01-07T02:51:37;4.57;;;3.20;;
79229;SDS011;68663;49.122;17.544;2024-01-07T02:54:03;5.15;;;3.33;;
79229;SDS011;68663;49.122;17.544;2024-01-07T02:56:28;3.53;;;3.08;;
79229;SDS011;68663;49.122;17.544;2024-01-07T02:58:54;4.63;;;3.30;;
79229;SDS011;68663;49.122;17.544;2024-01-07T03:01:21;3.85;;;3.00;;
79229;SDS011;68663;49.122;17.544;2024-01-07T03:03:48;4.22;;;3.28;;
79229;SDS011;68663;49.122;17.544;2024-01-07T03:06:13;4.93;;;3.65;;
79229;SDS011;68663;49.122;17.544;2024-01-07T03:08:39;3.50;;;3.08;;
79229;SDS011;68663;49.122;17.544;2024-01-07T03:11:05;3.88;;;2.90;;
79229;SDS011;68663;49.122;17.544;2024-01-07T03:13:31;4.22;;;3.13;;
79229;SDS011;68663;49.122;17.544;2024-01-07T03:15:57;3.47;;;3.10;;
79229;SDS011;68663;49.122;17.544;2024-01-07T03:18:22;3.20;;;2.72;;
79229;SDS011;68663;49.122;17.544;2024-01-07T03:20:48;3.67;;;3.17;;
79229;SDS011;68663;49.122;17.544;2024-01-07T03:23:13;4.47;;;3.27;;
79229;SDS011;68663;49.122;17.544;2024-01-07T03:25:38;3.95;;;3.03;;
79229;SDS011;68663;49.122;17.544;2024-01-07T03:28:04;3.42;;;3.08;;
79229;SDS011;68663;49.122;17.544;2024-01-07T03:30:29;3.65;;;3.05;;
79229;SDS011;68663;49.122;17.544;2024-01-07T03:32:55;3.60;;;2.83;;
79229;SDS011;68663;49.122;17.544;2024-01-07T03:35:20;4.28;;;3.80;;
79229;SDS011;68663;49.122;17.544;2024-01-07T03:37:46;3.47;;;2.88;;
79229;SDS011;68663;49.122;17.544;2024-01-07T03:40:12;3.57;;;3.10;;
79229;SDS011;68663;49.122;17.544;2024-01-07T03:42:37;4.50;;;3.30;;
79229;SDS011;68663;49.122;17.544;2024-01-07T03:45:03;3.70;;;3.30;;
79229;SDS011;68663;49.122;17.544;2024-01-07T03:47:30;3.63;;;3.15;;
79229;SDS011;68663;49.122;17.544;2024-01-07T03:49:56;4.15;;;2.88;;
79229;SDS011;68663;49.122;17.544;2024-01-07T03:52:22;3.40;;;2.90;;
79229;SDS011;68663;49.122;17.544;2024-01-07T03:54:47;3.95;;;2.90;;
79229;SDS011;68663;49.122;17.544;2024-01-07T03:57:13;3.17;;;2.88;;
79229;SDS011;68663;49.122;17.544;2024-01-07T03:59:38;4.07;;;3.07;;
79229;SDS011;68663;49.122;17.544;2024-01-07T04:02:04;3.58;;;2.88;;
79229;SDS011;68663;49.122;17.544;2024-01-07T04:04:29;2.72;;;2.33;;
79229;SDS011;68663;49.122;17.544;2024-01-07T04:06:55;3.85;;;3.35;;
79229;SDS011;68663;49.122;17.544;2024-01-07T04:09:21;4.40;;;3.20;;
79229;SDS011;68663;49.122;17.544;2024-01-07T04:11:46;3.85;;;3.20;;
79229;SDS011;68663;49.122;17.544;2024-01-07T04:14:13;3.65;;;2.60;;
79229;SDS011;68663;49.122;17.544;2024-01-07T04:16:40;3.20;;;2.75;;
79229;SDS011;68663;49.122;17.544;2024-01-07T04:19:05;5.13;;;3.15;;
79229;SDS011;68663;49.122;17.544;2024-01-07T04:21:31;3.67;;;2.83;;
79229;SDS011;68663;49.122;17.544;2024-01-07T04:23:56;3.80;;;3.08;;
79229;SDS011;68663;49.122;17.544;2024-01-07T04:26:22;3.40;;;2.85;;
79229;SDS011;68663;49.122;17.544;2024-01-07T04:28:47;3.83;;;3.20;;
79229;SDS011;68663;49.122;17.544;2024-01-07T04:31:12;3.58;;;2.83;;
79229;SDS011;68663;49.122;17.544;2024-01-07T04:33:38;3.70;;;2.90;;
79229;SDS011;68663;49.122;17.544;2024-01-07T04:36:03;3.78;;;3.10;;
79229;SDS011;68663;49.122;17.544;2024-01-07T04:38:29;3.72;;;3.03;;
79229;SDS011;68663;49.122;17.544;2024-01-07T04:40:54;3.38;;;2.65;;
79229;SDS011;68663;49.122;17.544;2024-01-07T04:43:20;3.38;;;2.83;;
79229;SDS011;68663;49.122;17.544;2024-01-07T04:45:46;3.22;;;2.70;;
79229;SDS011;68663;49.122;17.544;2024-01-07T04:48:12;3.25;;;2.90;;
79229;SDS011;68663;49.122;17.544;2024-01-07T04:50:39;4.20;;;3.30;;
79229;SDS011;68663;49.122;17.544;2024-01-07T04:53:06;3.95;;;2.95;;
79229;SDS011;68663;49.122;17.544;2024-01-07T04:55:32;3.53;;;2.72;;
79229;SDS011;68663;49.122;17.544;2024-01-07T04:57:58;3.58;;;2.92;;
79229;SDS011;68663;49.122;17.544;2024-01-07T05:00:23;3.53;;;2.70;;
79229;SDS011;68663;49.122;17.544;2024-01-07T05:02:48;3.47;;;3.00;;
79229;SDS011;68663;49.122;17.544;2024-01-07T05:05:14;3.30;;;3.00;;
79229;SDS011;68663;49.122;17.544;2024-01-07T05:07:39;3.55;;;2.80;;
79229;SDS011;68663;49.122;17.544;2024-01-07T05:10:05;3.75;;;3.00;;
79229;SDS011;68663;49.122;17.544;2024-01-07T05:12:31;3.85;;;3.10;;
79229;SDS011;68663;49.122;17.544;2024-01-07T05:14:56;3.53;;;2.50;;
79229;SDS011;68663;49.122;17.544;2024-01-07T05:17:22;3.33;;;2.97;;
79229;SDS011;68663;49.122;17.544;2024-01-07T05:19:47;3.20;;;2.75;;
79229;SDS011;68663;49.122;17.544;2024-01-07T05:22:13;3.85;;;3.05;;
79229;SDS011;68663;49.122;17.544;2024-01-07T05:24:38;3.50;;;2.72;;
79229;SDS011;68663;49.122;17.544;2024-01-07T05:27:04;4.80;;;2.50;;
79229;SDS011;68663;49.122;17.544;2024-01-07T05:29:30;4.65;;;3.45;;
79229;SDS011;68663;49.122;17.544;2024-01-07T05:31:58;4.80;;;2.90;;
79229;SDS011;68663;49.122;17.544;2024-01-07T05:34:25;5.53;;;3.10;;
79229;SDS011;68663;49.122;17.544;2024-01-07T05:36:53;6.32;;;3.60;;
79229;SDS011;68663;49.122;17.544;2024-01-07T05:39:19;5.43;;;3.50;;
79229;SDS011;68663;49.122;17.544;2024-01-07T05:41:44;7.05;;;3.95;;
79229;SDS011;68663;49.122;17.544;2024-01-07T05:44:11;6.93;;;3.63;;
79229;SDS011;68663;49.122;17.544;2024-01-07T05:46:40;9.50;;;3.42;;
79229;SDS011;68663;49.122;17.544;2024-01-07T05:49:05;5.63;;;3.78;;
79229;SDS011;68663;49.122;17.544;2024-01-07T05:51:31;5.35;;;3.13;;
79229;SDS011;68663;49.122;17.544;2024-01-07T05:53:56;6.63;;;3.00;;
79229;SDS011;68663;49.122;17.544;2024-01-07T05:56:22;5.28;;;2.95;;
79229;SDS011;68663;49.122;17.544;2024-01-07T05:58:47;20.55;;;5.50;;
79229;SDS011;68663;49.122;17.544;2024-01-07T06:01:18;10.63;;;4.57;;
79229;SDS011;68663;49.122;17.544;2024-01-07T06:03:46;33.03;;;9.10;;
79229;SDS011;68663;49.122;17.544;2024-01-07T06:06:13;38.70;;;11.82;;
79229;SDS011;68663;49.122;17.544;2024-01-07T06:08:40;39.65;;;11.43;;
79229;SDS011;68663;49.122;17.544;2024-01-07T06:11:06;28.30;;;10.07;;
79229;SDS011;68663;49.122;17.544;2024-01-07T06:13:32;29.58;;;9.90;;
79229;SDS011;68663;49.122;17.544;2024-01-07T06:15:57;32.67;;;9.75;;
79229;SDS011;68663;49.122;17.544;2024-01-07T06:18:22;25.52;;;10.05;;
79229;SDS011;68663;49.122;17.544;2024-01-07T06:20:48;31.52;;;9.15;;
79229;SDS011;68663;49.122;17.544;2024-01-07T06:23:13;25.23;;;7.97;;
79229;SDS011;68663;49.122;17.544;2024-01-07T06:25:39;21.38;;;8.10;;
79229;SDS011;68663;49.122;17.544;2024-01-07T06:28:04;22.23;;;8.00;;
79229;SDS011;68663;49.122;17.544;2024-01-07T06:30:30;24.42;;;8.45;;
79229;SDS011;68663;49.122;17.544;2024-01-07T06:32:56;23.53;;;8.10;;
79229;SDS011;68663;49.122;17.544;2024-01-07T06:35:21;21.65;;;8.57;;
79229;SDS011;68663;49.122;17.544;2024-01-07T06:37:46;26.75;;;9.32;;
79229;SDS011;68663;49.122;17.544;2024-01-07T06:40:12;24.00;;;8.50;;
79229;SDS011;68663;49.122;17.544;2024-01-07T06:42:37;22.63;;;8.30;;
79229;SDS011;68663;49.122;17.544;2024-01-07T06:45:03;19.95;;;8.25;;
79229;SDS011;68663;49.122;17.544;2024-01-07T06:47:29;21.23;;;7.45;;
79229;SDS011;68663;49.122;17.544;2024-01-07T06:49:54;21.23;;;7.15;;
79229;SDS011;68663;49.122;17.544;2024-01-07T06:52:20;17.15;;;6.80;;
79229;SDS011;68663;49.122;17.544;2024-01-07T06:54:46;19.05;;;7.18;;
79229;SDS011;68663;49.122;17.544;2024-01-07T06:57:11;12.13;;;5.93;;
79229;SDS011;68663;49.122;17.544;2024-01-07T06:59:36;19.50;;;6.97;;
79229;SDS011;68663;49.122;17.544;2024-01-07T07:02:02;15.53;;;6.43;;
79229;SDS011;68663;49.122;17.544;2024-01-07T07:04:27;13.52;;;6.72;;
79229;SDS011;68663;49.122;17.544;2024-01-07T07:06:53;15.13;;;6.70;;
79229;SDS011;68663;49.122;17.544;2024-01-07T07:09:18;20.42;;;7.03;;
79229;SDS011;68663;49.122;17.544;2024-01-07T07:11:44;17.77;;;6.82;;
79229;SDS011;68663;49.122;17.544;2024-01-07T07:14:09;17.05;;;6.22;;
79229;SDS011;68663;49.122;17.544;2024-01-07T07:16:35;15.55;;;6.60;;
79229;SDS011;68663;49.122;17.544;2024-01-07T07:19:00;15.40;;;6.72;;
79229;SDS011;68663;49.122;17.544;2024-01-07T07:21:26;14.57;;;6.22;;
79229;SDS011;68663;49.122;17.544;2024-01-07T07:23:52;14.25;;;6.43;;
79229;SDS011;68663;49.122;17.544;2024-01-07T07:26:17;13.52;;;6.57;;
79229;SDS011;68663;49.122;17.544;2024-01-07T07:28:43;12.37;;;6.67;;
79229;SDS011;68663;49.122;17.544;2024-01-07T07:31:10;13.30;;;6.30;;
79229;SDS011;68663;49.122;17.544;2024-01-07T07:33:38;12.40;;;6.03;;
79229;SDS011;68663;49.122;17.544;2024-01-07T07:36:04;15.05;;;6.70;;
79229;SDS011;68663;49.122;17.544;2024-01-07T07:38:29;11.50;;;5.72;;
79229;SDS011;68663;49.122;17.544;2024-01-07T07:40:55;16.90;;;6.37;;
79229;SDS011;68663;49.122;17.544;2024-01-07T07:43:20;17.40;;;6.53;;
79229;SDS011;68663;49.122;17.544;2024-01-07T07:45:46;16.85;;;6.55;;
79229;SDS011;68663;49.122;17.544;2024-01-07T07:48:11;14.85;;;6.00;;
79229;SDS011;68663;49.122;17.544;2024-01-07T07:50:37;13.38;;;5.75;;
79229;SDS011;68663;49.122;17.544;2024-01-07T07:53:02;15.68;;;6.70;;
79229;SDS011;68663;49.122;17.544;2024-01-07T07:55:28;10.52;;;5.53;;
79229;SDS011;68663;49.122;17.544;2024-01-07T07:57:53;12.85;;;6.22;;
79229;SDS011;68663;49.122;17.544;2024-01-07T08:00:19;13.63;;;5.82;;
79229;SDS011;68663;49.122;17.544;2024-01-07T08:02:44;12.73;;;6.80;;
79229;SDS011;68663;49.122;17.544;2024-01-07T08:05:10;12.30;;;5.78;;
79229;SDS011;68663;49.122;17.544;2024-01-07T08:07:36;12.80;;;5.18;;
79229;SDS011;68663;49.122;17.544;2024-01-07T08:10:01;11.82;;;5.38;;
79229;SDS011;68663;49.122;17.544;2024-01-07T08:12:27;14.05;;;5.40;;
79229;SDS011;68663;49.122;17.544;2024-01-07T08:14:53;11.88;;;6.00;;
79229;SDS011;68663;49.122;17.544;2024-01-07T08:17:18;11.03;;;6.17;;
79229;SDS011;68663;49.122;17.544;2024-01-07T08:19:44;10.80;;;5.53;;
79229;SDS011;68663;49.122;17.544;2024-01-07T08:22:09;11.63;;;5.35;;
79229;SDS011;68663;49.122;17.544;2024-01-07T08:24:35;15.25;;;5.70;;
79229;SDS011;68663;49.122;17.544;2024-01-07T08:27:01;13.77;;;4.63;;
79229;SDS011;68663;49.122;17.544;2024-01-07T08:29:28;10.70;;;4.70;;
79229;SDS011;68663;49.122;17.544;2024-01-07T08:31:53;9.40;;;5.53;;
79229;SDS011;68663;49.122;17.544;2024-01-07T08:34:18;10.85;;;4.75;;
79229;SDS011;68663;49.122;17.544;2024-01-07T08:36:44;16.27;;;4.93;;
79229;SDS011;68663;49.122;17.544;2024-01-07T08:39:09;10.60;;;5.38;;
79229;SDS011;68663;49.122;17.544;2024-01-07T08:41:36;8.55;;;4.60;;
79229;SDS011;68663;49.122;17.544;2024-01-07T08:44:02;8.07;;;5.50;;
79229;SDS011;68663;49.122;17.544;2024-01-07T08:46:27;6.72;;;4.90;;
79229;SDS011;68663;49.122;17.544;2024-01-07T08:48:52;8.25;;;4.78;;
79229;SDS011;68663;49.122;17.544;2024-01-07T08:51:18;9.85;;;5.40;;
79229;SDS011;68663;49.122;17.544;2024-01-07T08:53:43;6.72;;;4.53;;
79229;SDS011;68663;49.122;17.544;2024-01-07T08:56:09;7.60;;;4.32;;
79229;SDS011;68663;49.122;17.544;2024-01-07T08:58:34;7.80;;;5.20;;
79229;SDS011;68663;49.122;17.544;2024-01-07T09:01:00;7.97;;;4.57;;
79229;SDS011;68663;49.122;17.544;2024-01-07T09:03:25;9.15;;;5.15;;
79229;SDS011;68663;49.122;17.544;2024-01-07T09:05:51;8.80;;;5.20;;
79229;SDS011;68663;49.122;17.544;2024-01-07T09:08:16;8.75;;;4.68;;
79229;SDS011;68663;49.122;17.544;2024-01-07T09:10:42;7.32;;;4.40;;
79229;SDS011;68663;49.122;17.544;2024-01-07T09:13:07;9.80;;;4.38;;
79229;SDS011;68663;49.122;17.544;2024-01-07T09:15:32;6.30;;;4.10;;
79229;SDS011;68663;49.122;17.544;2024-01-07T09:17:58;7.85;;;4.47;;
79229;SDS011;68663;49.122;17.544;2024-01-07T09:20:23;8.50;;;4.82;;
79229;SDS011;68663;49.122;17.544;2024-01-07T09:22:49;7.03;;;4.32;;
79229;SDS011;68663;49.122;17.544;2024-01-07T09:25:15;6.82;;;4.18;;
79229;SDS011;68663;49.122;17.544;2024-01-07T09:27:41;5.88;;;4.00;;
79229;SDS011;68663;49.122;17.544;2024-01-07T09:30:08;6.20;;;3.83;;
79229;SDS011;68663;49.122;17.544;2024-01-07T09:32:35;5.38;;;3.67;;
79229;SDS011;68663;49.122;17.544;2024-01-07T09:35:01;9.05;;;4.35;;
79229;SDS011;68663;49.122;17.544;2024-01-07T09:37:27;6.43;;;4.43;;
79229;SDS011;68663;49.122;17.544;2024-01-07T09:39:52;7.10;;;3.83;;
79229;SDS011;68663;49.122;17.544;2024-01-07T09:42:18;6.38;;;3.83;;
79229;SDS011;68663;49.122;17.544;2024-01-07T09:44:44;7.00;;;3.50;;
79229;SDS011;68663;49.122;17.544;2024-01-07T09:47:14;5.40;;;3.80;;
79229;SDS011;68663;49.122;17.544;2024-01-07T09:49:40;9.40;;;4.68;;
79229;SDS011;68663;49.122;17.544;2024-01-07T09:52:07;8.20;;;3.58;;
79229;SDS011;68663;49.122;17.544;2024-01-07T09:54:35;7.45;;;3.85;;
79229;SDS011;68663;49.122;17.544;2024-01-07T09:57:03;6.40;;;3.80;;
79229;SDS011;68663;49.122;17.544;2024-01-07T09:59:33;7.35;;;4.00;;
79229;SDS011;68663;49.122;17.544;2024-01-07T10:01:59;8.00;;;4.03;;
79229;SDS011;68663;49.122;17.544;2024-01-07T10:04:25;8.90;;;3.65;;
79229;SDS011;68663;49.122;17.544;2024-01-07T10:06:52;9.57;;;4.32;;
79229;SDS011;68663;49.122;17.544;2024-01-07T10:09:19;5.55;;;3.55;;
79229;SDS011;68663;49.122;17.544;2024-01-07T10:11:47;8.25;;;3.42;;
79229;SDS011;68663;49.122;17.544;2024-01-07T10:14:12;8.40;;;3.85;;
79229;SDS011;68663;49.122;17.544;2024-01-07T10:16:38;5.88;;;3.70;;
79229;SDS011;68663;49.122;17.544;2024-01-07T10:19:04;7.38;;;3.15;;
79229;SDS011;68663;49.122;17.544;2024-01-07T10:21:30;8.98;;;4.10;;
79229;SDS011;68663;49.122;17.544;2024-01-07T10:24:08;9.57;;;4.13;;
79229;SDS011;68663;49.122;17.544;2024-01-07T10:26:35;7.57;;;3.30;;
79229;SDS011;68663;49.122;17.544;2024-01-07T10:29:00;6.70;;;3.70;;
79229;SDS011;68663;49.122;17.544;2024-01-07T10:31:26;6.35;;;3.60;;
79229;SDS011;68663;49.122;17.544;2024-01-07T10:33:52;9.77;;;3.75;;
79229;SDS011;68663;49.122;17.544;2024-01-07T10:36:17;8.20;;;4.32;;
79229;SDS011;68663;49.122;17.544;2024-01-07T10:38:45;7.32;;;3.28;;
79229;SDS011;68663;49.122;17.544;2024-01-07T10:41:11;6.10;;;3.70;;
79229;SDS011;68663;49.122;17.544;2024-01-07T10:43:38;7.28;;;3.50;;
79229;SDS011;68663;49.122;17.544;2024-01-07T10:46:04;12.10;;;4.25;;
79229;SDS011;68663;49.122;17.544;2024-01-07T10:48:31;6.90;;;4.07;;
79229;SDS011;68663;49.122;17.544;2024-01-07T10:51:00;5.15;;;3.05;;
79229;SDS011;68663;49.122;17.544;2024-01-07T10:53:25;8.80;;;4.47;;
79229;SDS011;68663;49.122;17.544;2024-01-07T10:56:02;7.47;;;3.28;;
79229;SDS011;68663;49.122;17.544;2024-01-07T10:58:30;9.70;;;3.55;;
79229;SDS011;68663;49.122;17.544;2024-01-07T11:00:57;6.30;;;3.33;;
79229;SDS011;68663;49.122;17.544;2024-01-07T11:03:29;7.90;;;3.35;;
79229;SDS011;68663;49.122;17.544;2024-01-07T11:06:01;5.05;;;3.20;;
79229;SDS011;68663;49.122;17.544;2024-01-07T11:08:36;5.50;;;3.17;;
79229;SDS011;68663;49.122;17.544;2024-01-07T11:11:15;5.45;;;3.17;;
79229;SDS011;68663;49.122;17.544;2024-01-07T11:13:43;7.55;;;3.63;;
79229;SDS011;68663;49.122;17.544;2024-01-07T11:16:09;5.45;;;3.40;;
79229;SDS011;68663;49.122;17.544;2024-01-07T11:18:39;12.77;;;3.42;;
79229;SDS011;68663;49.122;17.544;2024-01-07T11:21:05;7.72;;;3.20;;
79229;SDS011;68663;49.122;17.544;2024-01-07T11:23:35;5.65;;;3.55;;
79229;SDS011;68663;49.122;17.544;2024-01-07T11:26:05;6.15;;;3.80;;
79229;SDS011;68663;49.122;17.544;2024-01-07T11:31:08;6.50;;;2.92;;
79229;SDS011;68663;49.122;17.544;2024-01-07T11:33:34;5.43;;;3.20;;
79229;SDS011;68663;49.122;17.544;2024-01-07T11:36:02;4.30;;;3.08;;
79229;SDS011;68663;49.122;17.544;2024-01-07T11:38:29;6.72;;;3.38;;
79229;SDS011;68663;49.122;17.544;2024-01-07T11:40:56;4.35;;;3.10;;
79229;SDS011;68663;49.122;17.544;2024-01-07T11:43:22;4.28;;;3.03;;
79229;SDS011;68663;49.122;17.544;2024-01-07T11:45:51;4.43;;;2.95;;
79229;SDS011;68663;49.122;17.544;2024-01-07T11:48:17;6.72;;;3.22;;
79229;SDS011;68663;49.122;17.544;2024-01-07T11:50:43;7.53;;;3.00;;
79229;SDS011;68663;49.122;17.544;2024-01-07T11:53:09;3.92;;;2.83;;
79229;SDS011;68663;49.122;17.544;2024-01-07T11:55:37;4.63;;;2.78;;
79229;SDS011;68663;49.122;17.544;2024-01-07T11:58:02;4.68;;;3.00;;
79229;SDS011;68663;49.122;17.544;2024-01-07T12:00:32;7.00;;;3.22;;
79229;SDS011;68663;49.122;17.544;2024-01-07T12:02:59;17.90;;;10.25;;
79229;SDS011;68663;49.122;17.544;2024-01-07T12:05:25;111.72;;;30.65;;
79229;SDS011;68663;49.122;17.544;2024-01-07T12:07:51;171.60;;;42.80;;
79229;SDS011;68663;49.122;17.544;2024-01-07T12:10:16;168.88;;;43.33;;
79229;SDS011;68663;49.122;17.544;2024-01-07T12:12:42;130.48;;;36.88;;
79229;SDS011;68663;49.122;17.544;2024-01-07T12:15:09;109.25;;;34.22;;
79229;SDS011;68663;49.122;17.544;2024-01-07T12:17:38;104.88;;;29.98;;
79229;SDS011;68663;49.122;17.544;2024-01-07T12:20:04;111.35;;;34.70;;
79229;SDS011;68663;49.122;17.544;2024-01-07T12:22:30;83.80;;;28.45;;
79229;SDS011;68663;49.122;17.544;2024-01-07T12:25:28;41.95;;;18.05;;
79229;SDS011;68663;49.122;17.544;2024-01-07T12:27:50;29.60;;;14.05;;
79229;SDS011;68663;49.122;17.544;2024-01-07T12:30:21;30.52;;;12.15;;
79229;SDS011;68663;49.122;17.544;2024-01-07T12:32:51;21.85;;;11.35;;
79229;SDS011;68663;49.122;17.544;2024-01-07T12:35:16;28.58;;;10.85;;
79229;SDS011;68663;49.122;17.544;2024-01-07T12:37:43;18.42;;;10.30;;
79229;SDS011;68663;49.122;17.544;2024-01-07T12:40:09;14.65;;;9.02;;
79229;SDS011;68663;49.122;17.544;2024-01-07T12:42:36;19.63;;;9.77;;
79229;SDS011;68663;49.122;17.544;2024-01-07T12:45:05;17.15;;;9.32;;
79229;SDS011;68663;49.122;17.544;2024-01-07T12:47:30;16.30;;;9.07;;
79229;SDS011;68663;49.122;17.544;2024-01-07T12:49:56;16.42;;;10.00;;
79229;SDS011;68663;49.122;17.544;2024-01-07T12:52:23;14.70;;;9.13;;
79229;SDS011;68663;49.122;17.544;2024-01-07T12:54:48;13.43;;;8.10;;
79229;SDS011;68663;49.122;17.544;2024-01-07T12:57:14;13.20;;;9.73;;
79229;SDS011;68663;49.122;17.544;2024-01-07T12:59:39;12.63;;;9.15;;
79229;SDS011;68663;49.122;17.544;2024-01-07T13:02:05;11.30;;;8.67;;
79229;SDS011;68663;49.122;17.544;2024-01-07T13:04:30;11.15;;;8.38;;
79229;SDS011;68663;49.122;17.544;2024-01-07T13:06:55;12.20;;;8.60;;
79229;SDS011;68663;49.122;17.544;2024-01-07T13:09:21;11.30;;;8.70;;
79229;SDS011;68663;49.122;17.544;2024-01-07T13:11:46;11.60;;;8.35;;
79229;SDS011;68663;49.122;17.544;2024-01-07T13:14:12;9.45;;;7.65;;
79229;SDS011;68663;49.122;17.544;2024-01-07T13:16:37;9.32;;;6.82;;
79229;SDS011;68663;49.122;17.544;2024-01-07T13:19:03;10.30;;;7.28;;
79229;SDS011;68663;49.122;17.544;2024-01-07T13:21:29;10.35;;;7.00;;
79229;SDS011;68663;49.122;17.544;2024-01-07T13:23:54;8.40;;;6.28;;
79229;SDS011;68663;49.122;17.544;2024-01-07T13:26:20;6.93;;;6.23;;
79229;SDS011;68663;49.122;17.544;2024-01-07T13:28:45;7.05;;;5.00;;
79229;SDS011;68663;49.122;17.544;2024-01-07T13:31:10;6.70;;;5.90;;
79229;SDS011;68663;49.122;17.544;2024-01-07T13:33:38;7.15;;;5.95;;
79229;SDS011;68663;49.122;17.544;2024-01-07T13:36:03;6.88;;;5.70;;
79229;SDS011;68663;49.122;17.544;2024-01-07T13:38:34;8.27;;;5.55;;
79229;SDS011;68663;49.122;17.544;2024-01-07T13:40:59;11.35;;;5.30;;
79229;SDS011;68663;49.122;17.544;2024-01-07T13:43:25;7.53;;;5.45;;
79229;SDS011;68663;49.122;17.544;2024-01-07T13:45:52;7.85;;;5.18;;
79229;SDS011;68663;49.122;17.544;2024-01-07T13:48:18;7.85;;;4.57;;
79229;SDS011;68663;49.122;17.544;2024-01-07T13:50:43;6.60;;;4.47;;
79229;SDS011;68663;49.122;17.544;2024-01-07T13:53:10;9.60;;;6.05;;
79229;SDS011;68663;49.122;17.544;2024-01-07T13:55:36;22.25;;;7.88;;
79229;SDS011;68663;49.122;17.544;2024-01-07T13:58:01;18.60;;;8.70;;
79229;SDS011;68663;49.122;17.544;2024-01-07T14:00:27;21.23;;;9.10;;
79229;SDS011;68663;49.122;17.544;2024-01-07T14:02:52;21.42;;;9.15;;
79229;SDS011;68663;49.122;17.544;2024-01-07T14:05:18;20.23;;;8.40;;
79229;SDS011;68663;49.122;17.544;2024-01-07T14:07:43;21.95;;;8.77;;
79229;SDS011;68663;49.122;17.544;2024-01-07T14:10:09;20.45;;;7.30;;
79229;SDS011;68663;49.122;17.544;2024-01-07T14:12:34;20.67;;;7.57;;
79229;SDS011;68663;49.122;17.544;2024-01-07T14:15:00;19.63;;;7.65;;
79229;SDS011;68663;49.122;17.544;2024-01-07T14:17:25;22.45;;;7.15;;
79229;SDS011;68663;49.122;17.544;2024-01-07T14:19:51;16.10;;;6.35;;
79229;SDS011;68663;49.122;17.544;2024-01-07T14:22:22;15.55;;;6.95;;
79229;SDS011;68663;49.122;17.544;2024-01-07T14:24:48;19.17;;;7.80;;